Time;durP1;ratioP1;P1;durP2;ratioP2;P2;SDS_P1;SDS_P2;PMS_P1;PMS_P2;Temp;Humidity;BMP_temperature;BMP_pressure;BME280_temperature;BME280_humidity;BME280_pressure;Samples;Min_cycle;Max_cycle;Signal;HPM_P1;HPM_P2
2022/05/07 00:01:28;;;;;;;13.20;7.00;;;;;;;9.25;55.90;101795.19;110481;1236;60496;-82
2022/05/07 00:03:56;;;;;;;15.50;7.50;;;;;;;9.25;57.07;101794.46;110942;1235;59294;-83
2022/05/07 00:06:24;;;;;;;13.60;7.60;;;;;;;9.24;57.32;101794.88;111178;1235;70828;-83
2022/05/07 00:08:51;;;;;;;11.30;6.90;;;;;;;9.20;56.23;101793.15;110827;1236;69007;-84
2022/05/07 00:11:20;;;;;;;11.80;7.20;;;;;;;9.18;57.37;101797.10;110774;1235;69744;-85
2022/05/07 00:13:51;;;;;;;14.30;7.10;;;;;;;9.15;58.00;101798.96;110429;1238;71947;-81
2022/05/07 00:19:12;;;;;;;14.20;7.80;;;;;;;9.13;57.75;101794.58;110403;1238;60523;-84
2022/05/07 00:21:41;;;;;;;12.60;7.50;;;;;;;9.12;58.34;101793.39;110646;1235;69704;-85
2022/05/07 00:24:09;;;;;;;13.90;7.00;;;;;;;9.12;57.99;101792.53;110631;1236;72643;-85
2022/05/07 00:26:37;;;;;;;12.20;6.90;;;;;;;9.03;58.42;101779.91;110897;1235;71602;-84
2022/05/07 00:29:05;;;;;;;13.40;7.10;;;;;;;9.08;57.77;101789.41;110456;1236;73454;-81
2022/05/07 00:31:34;;;;;;;10.70;6.80;;;;;;;9.07;57.54;101788.77;110832;1235;58157;-83
2022/05/07 00:34:27;;;;;;;10.70;7.00;;;;;;;9.04;58.69;101789.25;110773;1234;60467;-83
2022/05/07 00:37:35;;;;;;;11.30;6.70;;;;;;;9.01;58.21;101788.17;110549;1233;71724;-81
2022/05/07 00:40:14;;;;;;;13.10;7.20;;;;;;;8.99;59.46;101786.92;110551;1235;70728;-85
2022/05/07 00:43:02;;;;;;;11.10;6.70;;;;;;;8.95;59.02;101788.48;109447;1235;68411;-73
2022/05/07 00:45:30;;;;;;;11.30;5.90;;;;;;;8.92;57.72;101787.56;109392;1235;74389;-81
2022/05/07 00:47:57;;;;;;;12.10;6.80;;;;;;;8.93;57.12;101786.84;109985;1235;61129;-81
2022/05/07 00:53:11;;;;;;;12.60;6.70;;;;;;;8.85;58.92;101779.61;110232;1235;72689;-76
2022/05/07 00:55:42;;;;;;;12.60;6.80;;;;;;;8.91;58.92;101788.88;108549;1237;71639;-76
2022/05/07 00:58:10;;;;;;;11.90;7.00;;;;;;;8.90;57.85;101786.98;108747;1235;70269;-77
2022/05/07 01:00:37;;;;;;;9.90;6.00;;;;;;;8.90;59.12;101786.27;108610;1236;74455;-76
2022/05/07 01:06:47;;;;;;;15.50;6.60;;;;;;;8.80;60.26;101785.41;108858;1236;60282;-77
2022/05/07 01:09:14;;;;;;;10.90;6.80;;;;;;;8.75;59.91;101783.19;108486;1237;72921;-76
2022/05/07 01:11:43;;;;;;;12.10;6.30;;;;;;;8.70;60.22;101777.34;108845;1235;72765;-77
2022/05/07 01:14:10;;;;;;;12.20;6.30;;;;;;;8.67;60.91;101782.51;109113;1235;69468;-76
2022/05/07 01:16:38;;;;;;;10.60;6.00;;;;;;;8.65;61.27;101781.23;109021;1235;72009;-76
2022/05/07 01:19:05;;;;;;;11.80;6.70;;;;;;;8.63;61.92;101784.30;108815;1236;63034;-78
2022/05/07 01:21:33;;;;;;;12.00;6.90;;;;;;;8.61;61.81;101783.84;108817;1236;60154;-77
2022/05/07 01:24:00;;;;;;;14.80;6.90;;;;;;;8.60;61.36;101788.94;108827;1235;73035;-78
2022/05/07 01:26:31;;;;;;;10.20;6.60;;;;;;;8.56;59.05;101784.64;108937;1235;70417;-77
2022/05/07 01:29:01;;;;;;;10.80;6.50;;;;;;;8.50;59.35;101785.92;108971;1236;67628;-76
2022/05/07 01:31:30;;;;;;;13.30;6.70;;;;;;;8.44;58.06;101781.55;108881;1236;72031;-75
2022/05/07 01:33:57;;;;;;;11.90;7.00;;;;;;;8.35;59.22;101780.00;108956;1235;60689;-77
2022/05/07 01:36:26;;;;;;;14.60;7.50;;;;;;;8.29;61.71;101785.66;108995;1234;61617;-75
2022/05/07 01:38:58;;;;;;;13.60;6.30;;;;;;;8.25;62.04;101785.84;108998;1235;71122;-77
2022/05/07 01:41:25;;;;;;;12.60;6.40;;;;;;;8.22;63.45;101784.94;109204;1234;71195;-76
2022/05/07 01:43:56;;;;;;;12.40;6.60;;;;;;;8.19;63.95;101777.40;109255;1234;69577;-76
2022/05/07 01:49:12;;;;;;;12.40;6.90;;;;;;;8.15;64.60;101771.73;109054;1234;63484;-75
2022/05/07 01:51:39;;;;;;;10.00;7.10;;;;;;;8.10;64.52;101767.95;109027;1235;59113;-78
2022/05/07 01:54:10;;;;;;;11.90;7.20;;;;;;;8.04;64.04;101767.35;109058;1235;71822;-77
2022/05/07 01:56:38;;;;;;;12.70;6.70;;;;;;;7.98;65.35;101765.71;108995;1235;71686;-77
2022/05/07 01:59:06;;;;;;;14.00;7.10;;;;;;;7.97;65.30;101764.03;108928;1236;68559;-75
2022/05/07 02:01:33;;;;;;;11.80;6.80;;;;;;;7.96;65.46;101760.45;108973;1237;73190;-74
2022/05/07 02:04:01;;;;;;;13.10;6.40;;;;;;;7.92;63.33;101758.50;109045;1235;60276;-76
2022/05/07 02:06:29;;;;;;;12.00;6.90;;;;;;;7.88;65.41;101757.67;109034;1237;59639;-75
2022/05/07 02:08:56;;;;;;;11.20;6.80;;;;;;;7.84;65.56;101763.55;109227;1235;71978;-75
2022/05/07 02:11:28;;;;;;;13.20;7.30;;;;;;;7.85;66.21;101762.50;108829;1235;71076;-76
2022/05/07 02:13:56;;;;;;;10.70;7.10;;;;;;;7.84;65.80;101763.59;109010;1235;68728;-77
2022/05/07 02:16:23;;;;;;;13.20;7.00;;;;;;;7.82;65.58;101762.45;109658;1230;72550;-78
2022/05/07 02:18:51;;;;;;;14.00;7.50;;;;;;;7.79;66.31;101761.91;109736;1230;62261;-77
2022/05/07 02:21:18;;;;;;;13.40;6.90;;;;;;;7.78;66.65;101760.89;109392;1233;60191;-79
2022/05/07 02:23:46;;;;;;;15.20;6.70;;;;;;;7.77;65.70;101759.90;109317;1230;72893;-78
2022/05/07 02:26:13;;;;;;;14.50;7.00;;;;;;;7.77;65.74;101758.48;109293;1230;72792;-77
2022/05/07 02:32:57;;;;;;;11.10;6.80;;;;;;;7.75;66.22;101761.02;109497;1230;73893;-76
2022/05/07 02:35:25;;;;;;;9.80;6.50;;;;;;;7.72;65.44;101759.23;109398;1233;60050;-75
2022/05/07 02:37:54;;;;;;;15.90;7.50;;;;;;;7.67;66.04;101757.90;109426;1231;60540;-76
2022/05/07 02:40:21;;;;;;;14.00;7.60;;;;;;;7.62;65.78;101758.65;109643;1233;71019;-79
2022/05/07 02:47:30;;;;;;;14.30;7.60;;;;;;;7.62;63.93;101756.02;110334;1230;69691;-77
2022/05/07 02:49:58;;;;;;;12.40;7.40;;;;;;;7.61;63.95;101754.86;109449;1231;73691;-77
2022/05/07 02:52:26;;;;;;;12.90;7.90;;;;;;;7.60;65.24;101752.98;109479;1230;61837;-78
2022/05/07 02:54:54;;;;;;;14.30;7.60;;;;;;;7.64;66.81;101755.77;109381;1233;60871;-77
2022/05/07 02:58:01;;;;;;;13.20;7.40;;;;;;;7.64;66.51;101755.06;109792;1230;73096;-78
2022/05/07 03:00:28;;;;;;;14.30;7.50;;;;;;;7.68;67.00;101757.31;109639;1230;72301;-77
2022/05/07 03:02:57;;;;;;;12.80;7.10;;;;;;;7.68;66.74;101756.10;109395;1230;70259;-77
2022/05/07 03:05:26;;;;;;;18.80;7.70;;;;;;;7.69;67.03;101750.49;109335;1230;72961;-77
2022/05/07 03:07:57;;;;;;;15.00;7.90;;;;;;;7.70;67.38;101754.11;109234;1231;61478;-77
2022/05/07 03:10:25;;;;;;;16.30;8.30;;;;;;;7.72;67.44;101753.19;109236;1230;60322;-76
2022/05/07 03:12:52;;;;;;;16.50;7.60;;;;;;;7.74;66.88;101754.33;109223;1231;74341;-78
2022/05/07 03:15:20;;;;;;;13.60;7.40;;;;;;;7.75;65.86;101752.88;109384;1233;71025;-77
2022/05/07 03:17:48;;;;;;;14.30;8.00;;;;;;;7.79;66.72;101753.05;109474;1230;69627;-79
2022/05/07 03:20:17;;;;;;;17.10;8.00;;;;;;;7.81;66.26;101753.63;109288;1233;71309;-79
2022/05/07 03:22:46;;;;;;;15.70;7.80;;;;;;;7.84;66.22;101753.66;109349;1232;60358;-78
2022/05/07 03:25:14;;;;;;;13.40;7.80;;;;;;;7.90;65.15;101759.12;109274;1231;60478;-78
2022/05/07 03:27:42;;;;;;;11.40;7.60;;;;;;;7.98;65.70;101760.33;109308;1230;74122;-77
2022/05/07 03:30:13;;;;;;;16.70;8.10;;;;;;;8.03;64.00;101763.44;109219;1231;70701;-76
2022/05/07 03:33:00;;;;;;;13.40;7.10;;;;;;;8.03;63.12;101768.64;109671;1230;70556;-77
2022/05/07 03:35:28;;;;;;;13.90;7.80;;;;;;;7.97;63.19;101770.27;109543;1231;71576;-77
2022/05/07 03:37:56;;;;;;;12.90;8.10;;;;;;;7.94;64.02;101772.48;109489;1230;61267;-77
2022/05/07 03:40:23;;;;;;;14.30;7.90;;;;;;;7.98;65.00;101777.48;109487;1230;61653;-78
2022/05/07 03:42:53;;;;;;;14.80;8.30;;;;;;;8.01;65.67;101778.80;109515;1229;70569;-78
2022/05/07 03:45:23;;;;;;;14.30;8.30;;;;;;;8.04;66.27;101781.57;109610;1230;72454;-77
2022/05/07 03:47:52;;;;;;;14.30;8.10;;;;;;;8.08;66.42;101783.33;109714;1230;71068;-76
2022/05/07 03:50:20;;;;;;;16.70;8.50;;;;;;;8.10;66.69;101780.98;109443;1230;74887;-79
2022/05/07 03:55:33;;;;;;;15.70;8.80;;;;;;;8.19;66.84;101782.09;109534;1231;61677;-78
2022/05/07 03:58:01;;;;;;;12.90;8.40;;;;;;;8.25;66.61;101784.96;109421;1230;72867;-78
2022/05/07 04:00:33;;;;;;;17.80;9.50;;;;;;;8.33;68.06;101786.35;109544;1230;71763;-81
2022/05/07 04:03:00;;;;;;;15.70;9.50;;;;;;;8.37;67.50;101782.17;109313;1231;69848;-77
2022/05/07 04:05:33;;;;;;;17.80;9.50;;;;;;;8.47;67.17;101782.95;109007;1230;73989;-76
2022/05/07 04:08:08;;;;;;;19.20;11.50;;;;;;;8.55;66.35;101782.77;109011;1230;60339;-76
2022/05/07 04:10:36;;;;;;;20.80;10.20;;;;;;;8.60;66.43;101786.15;109105;1233;61273;-77
2022/05/07 04:17:42;;;;;;;20.20;11.10;;;;;;;8.80;66.86;101793.75;109583;1230;69798;-78
2022/05/07 04:20:11;;;;;;;19.00;10.80;;;;;;;8.90;66.01;101794.66;109383;1230;68639;-76
2022/05/07 04:22:49;;;;;;;20.80;9.70;;;;;;;9.01;65.71;101793.39;109423;1230;73739;-76
2022/05/07 04:25:16;;;;;;;16.00;9.80;;;;;;;9.12;65.41;101794.60;109592;1230;60697;-80
2022/05/07 04:27:45;;;;;;;20.90;10.40;;;;;;;9.23;65.28;101794.57;109823;1233;60583;-80
2022/05/07 04:30:13;;;;;;;19.90;9.90;;;;;;;9.37;65.30;101795.63;110647;1230;72810;-82
2022/05/07 04:32:40;;;;;;;15.70;9.00;;;;;;;9.52;62.52;101795.91;111040;1229;71925;-83
2022/05/07 04:35:09;;;;;;;14.70;8.20;;;;;;;9.76;59.53;101796.08;110902;1230;68631;-84
2022/05/07 04:37:37;;;;;;;20.80;8.60;;;;;;;9.99;58.23;101798.85;110354;1231;73568;-81
2022/05/07 04:40:06;;;;;;;16.50;9.00;;;;;;;10.17;57.68;101802.09;110768;1230;60830;-85
2022/05/07 04:42:41;;;;;;;19.70;8.70;;;;;;;10.32;57.02;101805.85;110878;1229;60928;-83
2022/05/07 04:45:09;;;;;;;18.80;9.20;;;;;;;10.48;56.45;101806.55;110082;1231;73255;-79
2022/05/07 04:47:44;;;;;;;17.20;9.50;;;;;;;10.62;55.80;101805.25;110065;1230;72883;-80
2022/05/07 04:50:20;;;;;;;20.80;9.70;;;;;;;10.78;55.60;101807.68;110347;1230;70204;-81
2022/05/07 04:52:50;;;;;;;15.90;9.10;;;;;;;10.95;55.19;101805.52;109618;1232;72271;-78
2022/05/07 04:55:18;;;;;;;18.00;8.60;;;;;;;11.09;54.23;101806.25;109693;1230;59666;-79
2022/05/07 04:57:48;;;;;;;19.90;9.60;;;;;;;11.27;54.10;101807.34;110734;1230;59145;-82
2022/05/07 05:00:17;;;;;;;17.20;8.60;;;;;;;11.38;53.21;101797.97;110754;1230;72449;-82
2022/05/07 05:03:46;;;;;;;15.40;9.30;;;;;;;11.48;52.69;101795.83;110157;1229;71520;-81
2022/05/07 05:06:22;;;;;;;16.20;9.10;;;;;;;11.63;52.86;101798.40;110202;1233;69526;-83
2022/05/07 05:08:55;;;;;;;17.40;9.50;;;;;;;11.78;51.88;101803.10;110472;1233;71510;-80
2022/05/07 05:11:25;;;;;;;14.40;9.00;;;;;;;11.90;51.67;101797.36;110649;1233;59299;-83
2022/05/07 05:17:00;;;;;;;19.50;9.40;;;;;;;12.22;51.13;101795.36;110790;1232;73019;-78
2022/05/07 05:19:28;;;;;;;14.50;8.60;;;;;;;12.37;50.56;101796.73;110735;1230;72183;-85
2022/05/07 05:21:56;;;;;;;14.30;8.50;;;;;;;12.54;50.07;101794.42;111080;1230;70172;-83
2022/05/07 05:28:50;;;;;;;17.00;9.20;;;;;;;12.79;48.42;101799.98;110832;1230;60812;-83
2022/05/07 05:31:23;;;;;;;18.70;9.10;;;;;;;12.93;48.50;101800.12;110747;1230;61122;-80
2022/05/07 05:33:58;;;;;;;17.90;9.50;;;;;;;13.02;48.39;101802.35;110881;1230;73713;-80
2022/05/07 05:42:41;;;;;;;17.40;8.60;;;;;;;13.19;47.53;101806.15;111126;1230;68225;-80
2022/05/07 05:45:11;;;;;;;21.60;9.10;;;;;;;13.41;47.39;101807.70;110793;1230;71180;-81
2022/05/07 05:47:45;;;;;;;21.70;10.00;;;;;;;13.53;47.35;101806.54;110986;1231;58730;-84
2022/05/07 05:50:13;;;;;;;19.80;9.00;;;;;;;13.57;46.96;101808.87;110246;1233;59599;-81
2022/05/07 05:52:45;;;;;;;16.50;8.80;;;;;;;13.65;46.66;101809.70;110087;1230;72789;-79
2022/05/07 05:55:32;;;;;;;17.50;8.10;;;;;;;13.75;46.70;101814.65;109546;1236;71247;-80
2022/05/07 05:58:00;;;;;;;17.40;9.20;;;;;;;13.92;46.08;101814.34;110322;1230;69251;-78
2022/05/07 06:00:27;;;;;;;18.10;9.30;;;;;;;13.81;45.40;101776.42;110675;1230;74682;-78
2022/05/07 06:02:55;;;;;;;12.70;7.90;;;;;;;14.16;45.11;101815.15;110168;1230;59305;-79
2022/05/07 06:05:25;;;;;;;14.20;8.40;;;;;;;14.26;45.04;101815.80;110213;1230;60475;-79
2022/05/07 06:07:54;;;;;;;14.90;7.60;;;;;;;14.46;45.14;101816.52;109582;1233;72344;-78
2022/05/07 06:11:00;;;;;;;24.90;9.10;;;;;;;14.67;44.80;101816.10;109699;1232;70120;-75
2022/05/07 06:13:27;;;;;;;14.20;8.20;;;;;;;14.75;44.72;101819.38;109275;1233;70850;-80
2022/05/07 06:16:01;;;;;;;17.60;7.90;;;;;;;14.86;44.28;101820.83;110162;1235;71893;-80
2022/05/07 06:18:29;;;;;;;17.80;8.60;;;;;;;14.86;43.65;101822.08;110119;1235;61209;-81
2022/05/07 06:22:06;;;;;;;16.50;8.50;;;;;;;14.89;44.16;101819.75;109816;1235;60927;-79
2022/05/07 06:27:32;;;;;;;13.50;7.80;;;;;;;15.16;43.27;101814.58;109017;1235;72097;-78
2022/05/07 06:30:06;;;;;;;13.70;7.60;;;;;;;15.08;42.95;101814.67;109220;1235;69323;-79
2022/05/07 06:32:41;;;;;;;15.80;8.60;;;;;;;15.22;43.00;101819.76;109638;1235;73264;-79
2022/05/07 06:35:19;;;;;;;17.80;8.10;;;;;;;15.39;42.82;101820.61;110000;1235;59764;-79
2022/05/07 06:38:06;;;;;;;15.20;8.40;;;;;;;15.51;42.25;101821.24;109773;1235;60547;-80
2022/05/07 06:40:37;;;;;;;15.40;9.10;;;;;;;15.25;41.84;101823.24;109574;1234;73526;-81
2022/05/07 06:43:09;;;;;;;13.90;8.20;;;;;;;15.39;42.07;101825.56;110060;1236;72744;-80
2022/05/07 06:47:52;;;;;;;20.30;8.10;;;;;;;15.34;41.96;101823.23;110341;1235;71090;-79
2022/05/07 06:55:23;;;;;;;14.60;8.20;;;;;;;16.11;40.95;101820.73;110188;1235;60146;-81
2022/05/07 06:58:34;;;;;;;16.80;8.30;;;;;;;16.45;40.49;101821.55;110315;1235;60389;-78
2022/05/07 07:13:20;;;;;;;15.80;7.90;;;;;;;16.93;37.38;101809.23;110656;1230;73171;-79
2022/05/07 07:16:52;;;;;;;14.20;7.00;;;;;;;17.12;36.92;101809.09;110398;1231;59737;-79
2022/05/07 07:19:20;;;;;;;11.10;7.70;;;;;;;17.22;36.65;101808.24;110500;1233;58982;-76
2022/05/07 07:26:25;;;;;;;14.60;7.00;;;;;;;17.95;35.33;101802.08;111071;1230;72255;-78
2022/05/07 07:30:08;;;;;;;11.60;7.20;;;;;;;17.99;33.80;101800.49;110680;1231;70551;-80
2022/05/07 07:43:51;;;;;;;10.70;6.10;;;;;;;18.56;31.22;101807.52;110905;1230;61349;-81
2022/05/07 07:52:01;;;;;;;10.00;5.60;;;;;;;18.85;29.59;101815.16;111152;1230;70690;-81
2022/05/07 08:04:55;;;;;;;9.20;5.00;;;;;;;18.75;28.39;101807.63;111041;1230;58720;-81
2022/05/07 08:16:54;;;;;;;13.90;5.50;;;;;;;19.15;28.25;101795.13;110652;1231;71462;-80
2022/05/07 08:20:25;;;;;;;18.90;6.40;;;;;;;18.96;27.27;101793.84;110657;1231;69145;-78
2022/05/07 08:32:29;;;;;;;15.40;5.90;;;;;;;18.78;26.93;101793.59;110799;1230;61135;-80
2022/05/07 08:34:57;;;;;;;35.60;7.60;;;;;;;19.06;27.02;101796.16;110876;1231;74332;-80
2022/05/07 08:41:49;;;;;;;28.90;7.50;;;;;;;19.63;26.46;101788.20;111030;1231;59548;-81
2022/05/07 08:44:56;;;;;;;13.90;6.00;;;;;;;19.84;26.92;101792.34;110848;1232;73150;-80
2022/05/07 08:47:27;;;;;;;41.80;8.70;;;;;;;19.31;25.81;101788.92;110651;1232;57540;-79
2022/05/07 08:49:54;;;;;;;39.40;8.60;;;;;;;19.36;25.56;101792.67;110980;1230;61303;-77
2022/05/07 08:52:23;;;;;;;20.30;5.90;;;;;;;19.61;25.41;101787.91;110606;1231;63480;-81
2022/05/07 08:55:56;;;;;;;14.70;5.30;;;;;;;19.75;24.72;101792.44;110851;1233;61620;-81
2022/05/07 09:16:14;;;;;;;12.70;5.20;;;;;;;19.83;23.76;101783.67;110044;1234;62270;-80
2022/05/07 09:28:26;;;;;;;10.50;5.10;;;;;;;20.47;25.05;101772.75;110857;1233;75201;-81
2022/05/07 09:30:56;;;;;;;21.80;4.70;;;;;;;20.52;24.80;101775.08;110465;1234;61179;-80
2022/05/07 09:48:18;;;;;;;23.50;5.80;;;;;;;20.54;25.78;101770.50;111413;1231;63232;-84
2022/05/07 10:40:37;;;;;;;21.10;4.90;;;;;;;21.25;26.63;101735.69;111615;1228;60971;31
2022/05/07 10:44:21;;;;;;;16.10;4.70;;;;;;;21.32;26.39;101723.44;111183;1233;72241;-83
2022/05/07 11:04:21;;;;;;;9.00;4.00;;;;;;;22.72;26.68;101701.10;111824;1228;60886;31
2022/05/07 11:08:59;;;;;;;8.30;3.80;;;;;;;23.19;26.44;101699.67;110972;1233;73464;-83
2022/05/07 11:13:29;;;;;;;19.10;4.50;;;;;;;23.35;26.15;101694.65;110647;1240;61592;-85
2022/05/07 11:25:50;;;;;;;15.80;4.30;;;;;;;23.83;25.58;101685.30;111273;1231;58241;-83
2022/05/07 11:37:23;;;;;;;17.50;5.10;;;;;;;23.87;25.14;101670.73;111279;1231;69590;-81
2022/05/07 11:40:25;;;;;;;66.70;7.20;;;;;;;24.34;24.23;101667.45;111335;1229;70008;-80
2022/05/07 11:45:25;;;;;;;51.50;7.00;;;;;;;24.04;24.51;101664.24;110615;1230;73591;-78
2022/05/07 11:45:40;;;;;;;317.00;24.90;;;;;;;24.49;23.67;101663.83;110271;1231;59125;-80
2022/05/07 11:48:17;;;;;;;54.20;6.00;;;;;;;24.47;24.01;101657.27;109813;1233;57403;-78
2022/05/07 11:50:54;;;;;;;18.20;4.70;;;;;;;24.45;23.85;101650.52;110051;1231;72598;-81
2022/05/07 11:53:31;;;;;;;64.60;8.60;;;;;;;25.80;22.41;101650.64;110462;1231;61412;-77
2022/05/07 11:56:11;;;;;;;14.60;4.60;;;;;;;26.39;22.01;101648.78;111105;1231;59143;-80
2022/05/07 11:58:49;;;;;;;14.80;4.50;;;;;;;26.39;22.12;101646.85;110466;1231;72990;-79
2022/05/07 12:01:22;;;;;;;140.70;12.90;;;;;;;25.47;22.67;101642.96;110770;1231;62218;-80
2022/05/07 12:03:53;;;;;;;57.50;7.20;;;;;;;24.55;23.63;101636.71;111424;1230;57451;-83
2022/05/07 12:06:32;;;;;;;59.00;7.40;;;;;;;23.53;24.59;101634.71;111360;1229;72712;-80
2022/05/07 12:09:56;;;;;;;8.90;3.90;;;;;;;23.58;24.58;101631.52;111057;1232;72056;31
2022/05/07 12:12:26;;;;;;;11.80;4.20;;;;;;;24.89;23.43;101622.25;110689;1235;59663;-82
2022/05/07 12:14:54;;;;;;;34.50;5.80;;;;;;;25.77;22.02;101614.83;110410;1235;73284;-80
2022/05/07 12:20:08;;;;;;;25.40;4.60;;;;;;;24.57;22.83;101618.27;110587;1234;59869;-81
2022/05/07 12:33:14;;;;;;;45.50;6.50;;;;;;;26.55;20.93;101595.29;111520;1230;75094;-84
2022/05/07 12:35:42;;;;;;;40.10;7.20;;;;;;;26.88;20.65;101595.71;111401;1231;60954;-83
2022/05/07 12:39:06;;;;;;;13.30;3.40;;;;;;;27.23;19.78;101587.41;111552;1228;59351;31
2022/05/07 12:42:43;;;;;;;5.30;3.40;;;;;;;27.79;19.06;101593.48;111539;1230;62178;31
2022/05/07 12:45:15;;;;;;;10.10;3.60;;;;;;;27.21;19.75;101591.15;111433;1231;60871;-83
2022/05/07 12:47:55;;;;;;;16.90;4.40;;;;;;;26.88;20.45;101567.64;111478;1233;69805;-86
2022/05/07 12:50:48;;;;;;;52.00;6.40;;;;;;;26.23;21.32;101589.38;111382;1230;75764;-84
2022/05/07 12:57:16;;;;;;;65.30;7.80;;;;;;;26.38;20.28;101583.37;111777;1230;57100;-84
2022/05/07 13:00:55;;;;;;;22.40;4.50;;;;;;;26.92;19.71;101576.05;110747;1232;64104;31
2022/05/07 13:03:26;;;;;;;40.70;6.60;;;;;;;27.38;19.43;101574.90;111267;1231;70074;-82
2022/05/07 13:05:57;;;;;;;29.00;5.70;;;;;;;25.97;20.99;101576.01;111059;1233;70056;-82
2022/05/07 13:08:25;;;;;;;8.90;4.20;;;;;;;25.46;21.71;101570.20;111330;1233;62794;-81
2022/05/07 13:11:24;;;;;;;8.30;3.90;;;;;;;26.61;20.81;101557.46;110845;1235;61165;-82
2022/05/07 13:13:57;;;;;;;34.20;5.40;;;;;;;25.89;21.00;101553.92;110737;1233;61725;-84
2022/05/07 13:21:42;;;;;;;69.00;8.00;;;;;;;26.37;20.74;101567.02;111385;1230;68513;31
2022/05/07 13:40:38;;;;;;;120.60;13.60;;;;;;;27.43;19.34;101546.58;110577;1228;954233;-80
2022/05/07 13:43:06;;;;;;;25.50;5.60;;;;;;;28.02;19.07;101555.33;111675;1231;61480;-83
2022/05/07 13:54:26;;;;;;;6.60;3.30;;;;;;;27.45;19.76;101555.48;111159;1230;58308;31
2022/05/07 14:18:16;;;;;;;210.60;19.50;;;;;;;27.05;20.42;101558.19;111406;1228;58447;31
2022/05/07 14:20:47;;;;;;;27.00;5.60;;;;;;;26.55;20.43;101537.76;111886;1230;60792;-82
2022/05/07 14:23:45;;;;;;;8.80;3.50;;;;;;;27.66;19.46;101556.91;111102;1229;63539;31
2022/05/07 14:26:12;;;;;;;14.30;4.60;;;;;;;28.01;19.02;101560.23;111749;1229;61056;-77
2022/05/07 14:29:10;;;;;;;10.90;3.80;;;;;;;27.81;18.77;101547.20;111565;1231;69919;-80
2022/05/07 14:52:12;;;;;;;9.40;3.20;;;;;;;29.19;17.57;101560.10;111736;1228;60203;-78
2022/05/07 14:54:43;;;;;;;7.80;3.30;;;;;;;29.60;17.14;101553.70;112024;1230;62459;-81
2022/05/07 14:57:11;;;;;;;4.70;2.90;;;;;;;30.11;16.66;101565.90;111534;1230;60437;-79
2022/05/07 15:00:38;;;;;;;8.80;3.30;;;;;;;30.56;16.09;101565.35;111929;1229;57167;31
2022/05/07 15:03:06;;;;;;;8.00;3.30;;;;;;;30.28;16.31;101569.45;111705;1230;73085;-83
2022/05/07 15:05:34;;;;;;;7.40;3.10;;;;;;;29.51;17.32;101564.81;111600;1233;71874;-80
2022/05/07 15:11:11;;;;;;;9.40;3.10;;;;;;;29.38;17.57;101557.34;111184;1233;74565;-77
2022/05/07 15:13:40;;;;;;;8.70;3.50;;;;;;;30.13;16.65;101560.80;111389;1232;57715;-75
2022/05/07 15:16:07;;;;;;;4.70;2.70;;;;;;;28.62;17.88;101563.20;111286;1233;60475;-77
2022/05/07 15:18:35;;;;;;;6.20;2.80;;;;;;;29.02;17.27;101568.79;111456;1229;63325;-77
2022/05/07 15:21:07;;;;;;;6.90;3.30;;;;;;;28.62;17.58;101565.20;111248;1233;72632;-77
2022/05/07 15:23:35;;;;;;;6.60;2.80;;;;;;;26.76;19.36;101572.63;111298;1232;69729;-77
2022/05/07 15:26:02;;;;;;;7.70;3.20;;;;;;;26.84;19.28;101571.20;111379;1233;62954;-77
2022/05/07 15:28:30;;;;;;;7.00;3.20;;;;;;;26.06;20.45;101565.34;111380;1232;61336;-78
2022/05/07 15:30:58;;;;;;;5.60;3.30;;;;;;;25.74;20.62;101566.30;111357;1233;60250;-77
2022/05/07 15:38:57;;;;;;;12.90;3.30;;;;;;;25.80;20.39;101572.28;111525;1233;68745;-78
2022/05/07 15:41:25;;;;;;;6.40;3.10;;;;;;;25.51;20.72;101572.23;111459;1231;62880;-79
2022/05/07 15:43:52;;;;;;;10.20;3.20;;;;;;;25.02;21.52;101569.23;111147;1233;57757;-78
2022/05/07 15:46:22;;;;;;;7.10;2.80;;;;;;;24.98;21.44;101571.48;111322;1232;61435;-82
2022/05/07 15:48:49;;;;;;;11.60;3.10;;;;;;;24.08;22.82;101575.40;111435;1232;75467;-78
2022/05/07 15:51:18;;;;;;;6.80;3.20;;;;;;;24.09;23.05;101580.68;111459;1232;70516;-79
2022/05/07 15:57:51;;;;;;;5.20;3.20;;;;;;;23.80;23.11;101569.74;111037;1235;73870;-79
2022/05/07 16:00:19;;;;;;;13.10;3.80;;;;;;;23.80;23.10;101577.05;111347;1232;57706;-75
2022/05/07 16:02:48;;;;;;;6.40;3.30;;;;;;;23.79;23.00;101577.45;111361;1232;57821;-76
2022/05/07 16:05:17;;;;;;;4.70;3.10;;;;;;;23.77;23.37;101578.77;111320;1232;63337;-80
2022/05/07 16:14:54;;;;;;;6.30;3.30;;;;;;;23.47;23.74;101586.11;111504;1231;63826;-79
2022/05/07 16:17:22;;;;;;;6.30;3.40;;;;;;;23.55;23.43;101581.00;111662;1230;61260;-77
2022/05/07 16:19:49;;;;;;;5.70;3.10;;;;;;;23.58;23.39;101579.95;111507;1231;59325;-76
2022/05/07 16:25:04;;;;;;;17.20;4.10;;;;;;;23.26;24.13;101585.88;111493;1230;60820;-76
2022/05/07 16:27:32;;;;;;;12.00;4.40;;;;;;;22.68;25.05;101592.27;111315;1231;70776;-77
2022/05/07 16:30:01;;;;;;;10.30;4.00;;;;;;;22.38;25.38;101592.05;111318;1233;72457;-76
2022/05/07 16:32:30;;;;;;;8.10;4.00;;;;;;;22.13;25.95;101589.77;111268;1231;61500;-78
2022/05/07 16:34:58;;;;;;;10.20;4.60;;;;;;;21.65;26.81;101589.23;111293;1232;57834;-77
2022/05/07 16:37:25;;;;;;;8.40;3.80;;;;;;;21.43;27.00;101589.01;111336;1231;73692;-77
2022/05/07 16:39:53;;;;;;;9.70;4.60;;;;;;;21.32;27.09;101587.89;111493;1231;71992;-77
2022/05/07 16:42:20;;;;;;;5.50;3.20;;;;;;;21.11;27.67;101586.14;111395;1231;59721;-78
2022/05/07 16:44:47;;;;;;;7.10;3.80;;;;;;;20.78;27.81;101587.79;111356;1231;73891;-78
2022/05/07 16:47:15;;;;;;;11.60;3.30;;;;;;;20.45;28.43;101594.30;111282;1230;57646;-77
2022/05/07 16:49:42;;;;;;;6.40;3.20;;;;;;;20.31;28.51;101596.60;111319;1231;57716;-76
2022/05/07 16:52:10;;;;;;;7.00;3.10;;;;;;;20.19;28.63;101600.83;111490;1231;74815;-77
2022/05/07 16:54:37;;;;;;;10.40;3.80;;;;;;;20.15;28.68;101605.60;111304;1231;61247;-77
2022/05/07 16:57:06;;;;;;;7.50;3.40;;;;;;;20.10;28.88;101607.52;111478;1231;70477;-77
2022/05/07 16:59:33;;;;;;;8.10;3.40;;;;;;;20.00;29.27;101610.77;111444;1231;62827;-79
2022/05/07 17:02:01;;;;;;;8.80;3.70;;;;;;;19.77;29.74;101609.48;111116;1231;60552;-76
2022/05/07 17:04:48;;;;;;;11.10;3.90;;;;;;;19.65;29.98;101611.88;111256;1228;58276;31
2022/05/07 17:07:16;;;;;;;7.90;3.60;;;;;;;19.54;29.84;101612.39;111688;1231;73544;-80
2022/05/07 17:09:44;;;;;;;8.40;3.80;;;;;;;19.46;30.40;101612.52;111506;1231;61202;-79
2022/05/07 17:12:12;;;;;;;7.90;4.20;;;;;;;19.16;30.71;101611.39;111559;1231;70130;-79
2022/05/07 17:14:40;;;;;;;12.80;4.50;;;;;;;19.09;30.91;101613.48;111514;1231;75142;-80
2022/05/07 17:17:08;;;;;;;8.20;4.20;;;;;;;19.07;31.22;101615.09;111465;1233;57389;-81
2022/05/07 17:19:37;;;;;;;11.30;5.10;;;;;;;18.95;31.65;101614.84;111596;1231;61365;-81
2022/05/07 17:22:07;;;;;;;12.10;4.90;;;;;;;18.80;31.95;101619.70;111648;1231;63476;-84
2022/05/07 17:24:36;;;;;;;7.80;4.30;;;;;;;18.70;32.26;101622.20;111619;1231;60887;-81
2022/05/07 17:27:06;;;;;;;10.40;3.60;;;;;;;18.61;32.62;101622.37;111438;1232;69800;-81
2022/05/07 17:29:34;;;;;;;8.20;3.70;;;;;;;18.56;33.06;101620.91;111599;1231;71755;-79
2022/05/07 17:32:04;;;;;;;14.40;4.40;;;;;;;18.47;33.15;101617.63;111640;1231;57945;-81
2022/05/07 17:35:15;;;;;;;9.70;4.10;;;;;;;18.36;33.21;101618.84;111559;1230;60487;31
2022/05/07 17:41:41;;;;;;;15.30;6.50;;;;;;;18.04;34.12;101621.36;111409;1228;69519;-80
2022/05/07 17:44:08;;;;;;;8.60;4.20;;;;;;;18.07;34.38;101623.45;111349;1233;59556;-78
2022/05/07 17:46:35;;;;;;;9.70;4.50;;;;;;;18.02;34.68;101627.36;111324;1233;74370;-81
2022/05/07 17:49:17;;;;;;;10.30;4.50;;;;;;;17.98;35.14;101625.77;111342;1231;61147;-77
2022/05/07 17:51:48;;;;;;;11.40;4.50;;;;;;;17.92;34.96;101628.94;111419;1231;59210;-76
2022/05/07 17:54:19;;;;;;;11.00;5.30;;;;;;;17.86;35.12;101631.98;111273;1232;71656;-79